createdAt,value
2023-05-23T00:00:12.092Z,53.81
2023-05-23T00:02:42.384Z,53.86
2023-05-23T00:05:11.603Z,53.99
2023-05-23T00:07:40.509Z,53.55
2023-05-23T00:10:09.710Z,53.21
2023-05-23T00:12:40.042Z,52.98
2023-05-23T00:15:10.651Z,53.00
2023-05-23T00:17:40.131Z,52.96
2023-05-23T00:20:11.617Z,52.85
2023-05-23T00:22:43.622Z,52.99
2023-05-23T00:25:12.832Z,52.46
2023-05-23T00:27:41.730Z,52.23
2023-05-23T00:30:11.144Z,52.33
2023-05-23T00:32:40.078Z,52.50
2023-05-23T00:35:09.593Z,52.78
2023-05-23T00:37:38.820Z,52.55
2023-05-23T00:40:08.878Z,52.80
2023-05-23T00:42:37.798Z,52.30
2023-05-23T00:45:07.349Z,52.02
2023-05-23T00:47:36.547Z,52.07
2023-05-23T00:50:05.961Z,51.93
2023-05-23T00:52:35.356Z,51.45
2023-05-23T00:55:05.010Z,51.35
2023-05-23T00:57:40.358Z,50.93
2023-05-23T01:00:11.229Z,50.90
2023-05-23T01:02:47.902Z,50.41
2023-05-23T01:05:18.448Z,50.51
2023-05-23T01:07:51.676Z,50.04
2023-05-23T01:13:28.723Z,49.55
2023-05-23T01:16:23.202Z,49.18
2023-05-23T01:19:28.849Z,48.41
2023-05-23T01:22:02.878Z,48.12
2023-05-23T01:24:44.504Z,47.95
2023-05-23T01:27:30.602Z,48.12
2023-05-23T01:30:03.414Z,48.12
2023-05-23T01:32:33.924Z,47.57
2023-05-23T01:35:03.858Z,47.32
2023-05-23T01:37:32.844Z,46.56
2023-05-23T01:40:01.795Z,45.87
2023-05-23T01:42:33.527Z,45.28
2023-05-23T01:45:02.566Z,44.75
2023-05-23T01:47:34.841Z,44.58
2023-05-23T01:50:04.862Z,44.72
2023-05-23T01:52:34.675Z,44.41
2023-05-23T01:55:10.411Z,43.47
2023-05-23T01:57:40.817Z,43.07
2023-05-23T02:00:13.798Z,42.47
2023-05-23T02:02:43.856Z,42.49
2023-05-23T02:05:12.967Z,41.39
2023-05-23T02:07:41.847Z,40.27
2023-05-23T02:10:11.480Z,38.69
2023-05-23T02:12:40.684Z,36.59
2023-05-23T02:15:10.113Z,35.37
2023-05-23T02:17:43.607Z,34.92
2023-05-23T02:20:12.893Z,34.48
2023-05-23T02:22:41.757Z,34.25
2023-05-23T02:25:11.103Z,34.10
2023-05-23T02:27:41.429Z,33.99
2023-05-23T02:30:10.792Z,33.48
2023-05-23T02:32:39.699Z,33.36
2023-05-23T02:35:09.275Z,33.00
2023-05-23T02:37:38.230Z,33.13
2023-05-23T02:40:10.945Z,33.12
2023-05-23T02:42:39.834Z,33.13
2023-05-23T02:45:09.944Z,32.49
2023-05-23T02:47:39.261Z,32.38
2023-05-23T02:50:08.864Z,31.64
2023-05-23T02:52:37.820Z,31.48
2023-05-23T02:55:07.446Z,30.37
2023-05-23T02:57:42.281Z,29.64
2023-05-23T03:00:12.949Z,27.91
2023-05-23T03:02:43.607Z,27.22
2023-05-23T03:05:12.536Z,27.13
2023-05-23T03:07:41.540Z,25.81
2023-05-23T03:10:11.179Z,25.80
2023-05-23T03:12:40.673Z,24.69
2023-05-23T03:15:10.640Z,23.77
2023-05-23T03:17:43.036Z,24.62
2023-05-23T03:20:12.790Z,24.95
2023-05-23T03:22:44.147Z,26.07
2023-05-23T03:25:13.134Z,26.77
2023-05-23T03:27:42.258Z,27.39
2023-05-23T03:30:11.556Z,27.58
2023-05-23T03:32:40.696Z,27.89
2023-05-23T03:35:10.033Z,26.62
2023-05-23T03:37:39.239Z,25.24
2023-05-23T03:40:09.055Z,25.63
2023-05-23T03:42:39.413Z,24.94
2023-05-23T03:45:08.756Z,23.60
2023-05-23T03:47:38.111Z,23.86
2023-05-23T03:50:08.273Z,24.17
2023-05-23T03:52:38.579Z,25.02
2023-05-23T03:55:07.855Z,25.22
2023-05-23T03:57:36.783Z,25.17
2023-05-23T04:00:13.035Z,25.63
2023-05-23T04:02:52.503Z,25.78
2023-05-23T04:05:25.402Z,26.05
2023-05-23T04:07:55.190Z,25.27
2023-05-23T04:10:24.906Z,25.08
2023-05-23T04:12:54.001Z,25.61
2023-05-23T04:15:22.970Z,25.90
2023-05-23T04:17:57.323Z,26.05
2023-05-23T04:20:28.385Z,27.03
2023-05-23T04:22:57.540Z,28.11
2023-05-23T04:25:27.928Z,28.08
2023-05-23T04:28:11.056Z,27.08
2023-05-23T04:30:40.069Z,26.89
2023-05-23T04:33:10.682Z,26.89
2023-05-23T04:35:41.516Z,26.05
2023-05-23T04:38:11.025Z,25.38
2023-05-23T04:40:40.656Z,25.04
2023-05-23T04:43:30.120Z,25.20
2023-05-23T04:46:05.091Z,24.98
2023-05-23T04:48:45.407Z,24.87
2023-05-23T04:51:14.366Z,24.49
2023-05-23T04:53:55.049Z,23.58
2023-05-23T04:56:27.951Z,22.58
2023-05-23T04:58:57.174Z,21.82
2023-05-23T05:01:31.940Z,21.68
2023-05-23T05:04:02.173Z,21.59
2023-05-23T05:06:31.648Z,21.06
2023-05-23T05:09:00.668Z,20.06
2023-05-23T05:11:29.614Z,19.54
2023-05-23T05:13:58.542Z,19.81
2023-05-23T05:16:27.728Z,19.31
2023-05-23T05:18:57.923Z,18.92
2023-05-23T05:21:26.912Z,17.74
2023-05-23T05:23:56.413Z,17.95
2023-05-23T05:26:25.387Z,18.12
2023-05-23T05:28:54.395Z,18.72
2023-05-23T05:31:24.129Z,19.18
2023-05-23T05:33:52.995Z,18.78
2023-05-23T05:36:22.372Z,18.28
2023-05-23T05:38:53.740Z,17.68
2023-05-23T05:41:23.914Z,16.64
2023-05-23T05:43:55.214Z,16.10
2023-05-23T05:46:24.369Z,15.15
2023-05-23T05:48:54.671Z,15.67
2023-05-23T05:51:24.168Z,15.39
2023-05-23T05:53:53.101Z,15.32
2023-05-23T05:56:23.195Z,14.44
2023-05-23T05:58:52.047Z,15.31
2023-05-23T06:01:22.287Z,15.75
2023-05-23T06:03:51.563Z,16.57
2023-05-23T06:06:21.123Z,16.91
2023-05-23T06:08:50.278Z,17.14
2023-05-23T06:11:19.289Z,17.51
2023-05-23T06:13:48.176Z,17.88
2023-05-23T06:16:17.213Z,17.76
2023-05-23T06:18:47.297Z,17.35
2023-05-23T06:21:16.986Z,16.55
2023-05-23T06:23:50.574Z,15.89
2023-05-23T06:26:19.519Z,15.91
2023-05-23T06:28:48.442Z,15.48
2023-05-23T06:31:17.313Z,15.85
2023-05-23T06:33:46.359Z,16.34
2023-05-23T06:36:15.393Z,16.45
2023-05-23T06:38:44.217Z,16.77
2023-05-23T06:41:13.090Z,16.60
2023-05-23T06:43:42.016Z,16.28
2023-05-23T06:46:16.214Z,15.69
2023-05-23T06:48:45.331Z,15.52
2023-05-23T06:51:14.316Z,16.06
2023-05-23T06:53:44.138Z,16.47
2023-05-23T06:56:13.673Z,17.02
2023-05-23T06:58:53.638Z,17.42
2023-05-23T07:01:24.488Z,18.01
2023-05-23T07:03:53.704Z,18.06
2023-05-23T07:06:23.555Z,18.05
2023-05-23T07:08:53.096Z,18.43
2023-05-23T07:11:23.807Z,18.41
2023-05-23T07:13:59.988Z,18.37
2023-05-23T07:16:41.862Z,18.36
2023-05-23T07:19:10.973Z,18.53
2023-05-23T07:21:47.411Z,17.77
2023-05-23T07:24:19.188Z,16.69
2023-05-23T07:26:48.235Z,16.10
2023-05-23T07:29:17.109Z,16.10
2023-05-23T07:31:48.288Z,16.56
2023-05-23T07:34:17.231Z,16.62
2023-05-23T07:36:54.974Z,16.53
2023-05-23T07:39:26.517Z,17.14
2023-05-23T07:41:59.503Z,16.86
2023-05-23T07:44:29.693Z,17.18
2023-05-23T07:46:58.792Z,17.29
2023-05-23T07:49:27.972Z,17.71
2023-05-23T07:51:59.245Z,18.01
2023-05-23T07:54:29.034Z,18.11
2023-05-23T07:57:01.778Z,18.23
2023-05-23T07:59:31.043Z,18.19
2023-05-23T08:02:01.451Z,18.42
2023-05-23T08:04:31.020Z,18.55
2023-05-23T08:07:05.526Z,18.59
2023-05-23T08:09:56.836Z,18.40
2023-05-23T08:12:25.749Z,18.37
2023-05-23T08:15:04.188Z,18.61
2023-05-23T08:20:12.853Z,18.95
2023-05-23T08:22:41.899Z,18.96
2023-05-23T08:25:11.829Z,18.91
2023-05-23T08:27:42.345Z,19.38
2023-05-23T08:30:30.313Z,19.55
2023-05-23T08:32:59.498Z,19.86
2023-05-23T08:35:29.909Z,19.82
2023-05-23T08:37:58.871Z,20.13
2023-05-23T08:40:31.982Z,20.00
2023-05-23T08:43:20.300Z,20.12
2023-05-23T08:45:52.079Z,20.27
2023-05-23T08:48:22.016Z,20.66
2023-05-23T08:50:54.158Z,20.61
2023-05-23T08:53:29.012Z,20.56
2023-05-23T08:56:06.389Z,20.44
2023-05-23T08:58:44.505Z,20.76
2023-05-23T09:01:15.276Z,20.54
2023-05-23T09:03:45.049Z,20.79
2023-05-23T09:06:22.693Z,21.02
2023-05-23T09:08:52.622Z,21.32
2023-05-23T09:11:23.327Z,21.04
2023-05-23T09:13:52.959Z,21.07
2023-05-23T09:16:24.173Z,21.07
2023-05-23T09:18:57.961Z,21.35
2023-05-23T09:21:28.599Z,21.32
2023-05-23T09:24:04.294Z,21.28
2023-05-23T09:26:33.753Z,21.43
2023-05-23T09:29:06.654Z,21.35
2023-05-23T09:31:35.787Z,21.57
2023-05-23T09:34:05.242Z,21.41
2023-05-23T09:36:35.655Z,21.43
2023-05-23T09:39:06.256Z,21.72
2023-05-23T09:41:36.115Z,21.56
2023-05-23T09:44:10.282Z,21.86
2023-05-23T09:46:39.598Z,21.82
2023-05-23T09:49:19.076Z,21.74
2023-05-23T09:52:00.204Z,21.90
2023-05-23T09:54:29.324Z,21.76
2023-05-23T09:57:02.002Z,21.85
2023-05-23T09:59:32.822Z,22.08
2023-05-23T10:02:04.684Z,22.00
2023-05-23T10:04:36.169Z,22.38
2023-05-23T10:07:17.876Z,22.56
2023-05-23T10:09:54.917Z,22.60
2023-05-23T10:12:51.100Z,22.49
2023-05-23T10:15:24.548Z,22.57
2023-05-23T10:18:19.168Z,22.32
2023-05-23T10:20:56.728Z,22.23
2023-05-23T10:23:25.734Z,22.35
2023-05-23T10:25:55.954Z,22.27
2023-05-23T10:28:25.282Z,22.33
2023-05-23T10:30:54.302Z,22.61
2023-05-23T10:33:24.509Z,22.44
2023-05-23T10:36:10.661Z,22.60
2023-05-23T10:38:51.867Z,22.80
2023-05-23T10:41:35.008Z,22.76
2023-05-23T10:44:31.967Z,22.57
2023-05-23T10:47:04.872Z,22.60
2023-05-23T10:49:45.683Z,22.51
2023-05-23T10:52:18.158Z,22.54
2023-05-23T10:54:53.007Z,22.79
2023-05-23T10:57:24.013Z,22.88
2023-05-23T10:59:53.068Z,23.20
2023-05-23T11:02:30.220Z,23.20
2023-05-23T11:05:25.169Z,23.12
2023-05-23T11:08:18.351Z,23.21
2023-05-23T11:10:57.490Z,23.16
2023-05-23T11:13:26.627Z,23.31
2023-05-23T11:15:55.590Z,23.37
2023-05-23T11:18:28.099Z,23.65
2023-05-23T11:20:59.551Z,23.47
2023-05-23T11:23:42.419Z,23.33
2023-05-23T11:26:34.585Z,23.43
2023-05-23T11:29:06.413Z,23.51
2023-05-23T11:31:39.064Z,23.42
2023-05-23T11:34:08.425Z,23.35
2023-05-23T11:36:37.413Z,23.59
2023-05-23T11:39:06.420Z,23.65
2023-05-23T11:41:36.569Z,23.54
2023-05-23T11:44:13.648Z,23.46
2023-05-23T11:46:43.447Z,23.52
2023-05-23T11:49:15.485Z,23.76
2023-05-23T11:51:44.548Z,23.50
2023-05-23T11:54:14.097Z,23.49
2023-05-23T11:56:43.103Z,23.82
2023-05-23T11:59:12.099Z,23.58
2023-05-23T12:01:42.192Z,23.68
2023-05-23T12:04:13.477Z,23.95
2023-05-23T12:06:42.726Z,24.23
2023-05-23T12:09:14.716Z,24.02
2023-05-23T12:11:44.909Z,23.98
2023-05-23T12:14:18.181Z,24.18
2023-05-23T12:16:47.978Z,24.31
2023-05-23T12:19:20.555Z,23.91
2023-05-23T12:21:50.726Z,24.23
2023-05-23T12:24:23.979Z,24.71
2023-05-23T12:26:55.522Z,24.51
2023-05-23T12:29:35.914Z,24.24
2023-05-23T12:32:07.045Z,24.32
2023-05-23T12:34:36.171Z,24.57
2023-05-23T12:37:19.086Z,24.52
2023-05-23T12:39:49.637Z,24.92
2023-05-23T12:42:18.610Z,24.77
2023-05-23T12:44:50.314Z,24.69
2023-05-23T12:47:19.442Z,24.80
2023-05-23T12:49:48.880Z,24.83
2023-05-23T12:52:17.733Z,25.13
2023-05-23T12:54:47.104Z,24.91
2023-05-23T12:57:16.195Z,25.30
2023-05-23T12:59:45.163Z,25.49
2023-05-23T13:02:14.516Z,25.34
2023-05-23T13:04:43.967Z,25.59
2023-05-23T13:07:13.363Z,25.36
2023-05-23T13:09:42.637Z,25.60
2023-05-23T13:12:12.975Z,25.76
2023-05-23T13:14:42.841Z,25.65
2023-05-23T13:17:11.826Z,25.93
2023-05-23T13:19:40.887Z,25.86
2023-05-23T13:22:13.665Z,25.69
2023-05-23T13:24:44.226Z,25.86
2023-05-23T13:27:13.062Z,26.03
2023-05-23T13:29:42.665Z,26.19
2023-05-23T13:32:11.525Z,26.15
2023-05-23T13:34:40.551Z,26.59
2023-05-23T13:37:09.515Z,26.58
2023-05-23T13:39:38.502Z,26.32
2023-05-23T13:42:08.771Z,26.53
2023-05-23T13:44:38.058Z,26.77
2023-05-23T13:47:14.734Z,27.16
2023-05-23T13:49:43.875Z,26.85
2023-05-23T13:52:14.520Z,26.83
2023-05-23T13:54:44.869Z,26.95
2023-05-23T13:57:13.782Z,27.30
2023-05-23T13:59:42.589Z,26.97
2023-05-23T14:02:12.729Z,27.39
2023-05-23T14:04:41.867Z,27.40
2023-05-23T14:07:10.723Z,27.56
2023-05-23T14:09:40.342Z,28.02
2023-05-23T14:12:09.450Z,28.33
2023-05-23T14:14:38.345Z,28.44
2023-05-23T14:17:07.304Z,28.60
2023-05-23T14:19:36.482Z,29.11
2023-05-23T14:22:05.518Z,28.68
2023-05-23T14:24:34.427Z,28.73
2023-05-23T14:27:03.396Z,28.65
2023-05-23T14:29:32.529Z,28.86
2023-05-23T14:32:03.409Z,29.33
2023-05-23T14:34:32.752Z,29.26
2023-05-23T14:37:01.962Z,29.89
2023-05-23T14:39:30.941Z,29.81
2023-05-23T14:42:00.165Z,29.87
2023-05-23T14:44:29.207Z,30.09
2023-05-23T14:46:58.251Z,30.10
2023-05-23T14:49:27.316Z,30.31
2023-05-23T14:51:56.547Z,30.36
2023-05-23T14:54:25.469Z,30.48
2023-05-23T14:56:54.416Z,30.12
2023-05-23T14:59:23.749Z,30.48
2023-05-23T15:01:53.517Z,30.54
2023-05-23T15:04:22.789Z,30.40
2023-05-23T15:06:51.881Z,30.51
2023-05-23T15:09:20.897Z,30.59
2023-05-23T15:11:50.347Z,30.84
2023-05-23T15:14:19.369Z,30.90
2023-05-23T15:16:49.602Z,30.80
2023-05-23T15:19:18.645Z,30.98
2023-05-23T15:21:50.995Z,30.98
2023-05-23T15:24:20.727Z,31.12
2023-05-23T15:26:49.843Z,31.19
2023-05-23T15:29:18.907Z,30.85
2023-05-23T15:31:48.010Z,31.20
2023-05-23T15:34:16.995Z,31.42
2023-05-23T15:36:45.998Z,31.42
2023-05-23T15:39:14.894Z,31.30
2023-05-23T15:41:43.989Z,31.50
2023-05-23T15:44:15.043Z,31.24
2023-05-23T15:46:44.366Z,31.48
2023-05-23T15:49:24.855Z,31.62
2023-05-23T15:51:55.751Z,31.45
2023-05-23T15:54:24.808Z,31.57
2023-05-23T15:56:53.787Z,31.57
2023-05-23T15:59:22.721Z,31.86
2023-05-23T16:01:53.332Z,31.82
2023-05-23T16:04:24.128Z,31.87
2023-05-23T16:06:53.176Z,32.02
2023-05-23T16:09:22.057Z,31.74
2023-05-23T16:11:50.998Z,31.83
2023-05-23T16:14:20.420Z,32.32
2023-05-23T16:16:49.519Z,32.56
2023-05-23T16:19:18.510Z,33.15
2023-05-23T16:21:47.559Z,33.61
2023-05-23T16:24:17.723Z,33.74
2023-05-23T16:26:46.541Z,33.74
2023-05-23T16:29:15.642Z,33.87
2023-05-23T16:31:44.564Z,33.97
2023-05-23T16:34:13.522Z,33.97
2023-05-23T16:36:42.558Z,33.99
2023-05-23T16:39:11.860Z,33.93
2023-05-23T16:41:40.832Z,33.83
2023-05-23T16:44:09.752Z,34.06
2023-05-23T16:46:38.934Z,33.92
2023-05-23T16:49:07.852Z,34.06
2023-05-23T16:51:36.786Z,34.08
2023-05-23T16:54:05.770Z,34.29
2023-05-23T16:56:34.662Z,34.08
2023-05-23T16:59:03.642Z,34.17
2023-05-23T17:01:33.591Z,34.34
2023-05-23T17:04:02.614Z,34.22
2023-05-23T17:06:32.055Z,34.31
2023-05-23T17:09:00.955Z,34.42
2023-05-23T17:11:29.880Z,34.34
2023-05-23T17:13:58.707Z,34.81
2023-05-23T17:16:27.697Z,34.75
2023-05-23T17:18:57.012Z,34.96
2023-05-23T17:21:26.128Z,35.17
2023-05-23T17:23:55.046Z,35.38
2023-05-23T17:26:24.169Z,35.50
2023-05-23T17:28:53.268Z,35.98
2023-05-23T17:31:22.259Z,36.30
2023-05-23T17:33:51.311Z,37.47
2023-05-23T17:36:20.203Z,38.88
2023-05-23T17:38:49.458Z,40.16
2023-05-23T17:41:18.804Z,40.80
2023-05-23T17:43:47.744Z,41.74
2023-05-23T17:46:16.944Z,44.62
2023-05-23T17:48:47.951Z,45.30
2023-05-23T17:51:17.584Z,45.97
2023-05-23T17:53:46.554Z,46.41
2023-05-23T17:56:15.350Z,47.09
2023-05-23T17:58:44.528Z,47.94
2023-05-23T18:01:15.304Z,49.19
2023-05-23T18:03:44.611Z,50.11
2023-05-23T18:06:13.600Z,49.49
2023-05-23T18:08:42.569Z,51.43
2023-05-23T18:11:11.533Z,52.49
2023-05-23T18:13:40.479Z,53.79
2023-05-23T18:16:09.944Z,53.68
2023-05-23T18:18:38.817Z,54.02
2023-05-23T18:21:09.443Z,55.62
2023-05-23T18:23:38.315Z,54.74
2023-05-23T18:26:07.230Z,55.84
2023-05-23T18:28:36.260Z,56.70
2023-05-23T18:31:05.301Z,57.63
2023-05-23T18:33:34.241Z,57.88
2023-05-23T18:36:03.740Z,58.08
2023-05-23T18:38:32.755Z,58.27
2023-05-23T18:41:01.833Z,58.88
2023-05-23T18:43:30.576Z,59.07
2023-05-23T18:45:59.318Z,59.92
2023-05-23T18:48:28.286Z,59.73
2023-05-23T18:50:57.245Z,59.69
2023-05-23T18:53:26.147Z,60.28
2023-05-23T18:55:55.070Z,60.40
2023-05-23T18:58:23.922Z,61.64
2023-05-23T19:00:54.166Z,61.89
2023-05-23T19:03:23.220Z,61.63
2023-05-23T19:05:52.241Z,61.95
2023-05-23T19:08:21.080Z,61.79
2023-05-23T19:10:49.999Z,62.51
2023-05-23T19:13:20.668Z,63.51
2023-05-23T19:15:52.615Z,64.82
2023-05-23T19:18:21.554Z,65.44
2023-05-23T19:20:52.355Z,66.57
2023-05-23T19:23:21.960Z,66.84
2023-05-23T19:25:50.765Z,67.70
2023-05-23T19:28:19.707Z,67.15
2023-05-23T19:30:48.917Z,67.68
2023-05-23T19:33:19.029Z,68.18
2023-05-23T19:35:47.847Z,68.34
2023-05-23T19:38:16.800Z,68.03
2023-05-23T19:40:47.584Z,69.00
2023-05-23T19:43:16.526Z,68.75
2023-05-23T19:45:45.401Z,69.82
2023-05-23T19:48:14.768Z,69.51
2023-05-23T19:50:44.321Z,69.63
2023-05-23T19:53:13.558Z,69.50
2023-05-23T19:55:43.490Z,70.30
2023-05-23T19:58:12.321Z,70.17
2023-05-23T20:00:42.893Z,70.56
2023-05-23T20:03:12.849Z,70.22
2023-05-23T20:05:42.185Z,70.51
2023-05-23T20:08:11.322Z,70.50
2023-05-23T20:10:40.634Z,70.84
2023-05-23T20:13:09.810Z,71.23
2023-05-23T20:15:40.509Z,71.83
2023-05-23T20:18:10.143Z,71.74
2023-05-23T20:20:39.105Z,71.77
2023-05-23T20:23:08.066Z,72.65
2023-05-23T20:25:36.896Z,72.87
2023-05-23T20:28:06.266Z,72.54
2023-05-23T20:30:35.346Z,72.87
2023-05-23T20:33:04.400Z,72.86
2023-05-23T20:35:33.329Z,72.46
2023-05-23T20:38:02.269Z,72.04
2023-05-23T20:40:34.120Z,72.29
2023-05-23T20:43:05.696Z,72.26
2023-05-23T20:45:34.813Z,73.02
2023-05-23T20:48:03.864Z,72.93
2023-05-23T20:50:34.332Z,72.51
2023-05-23T20:53:03.641Z,72.22
2023-05-23T20:55:35.474Z,72.49
2023-05-23T20:58:04.396Z,72.54
2023-05-23T21:00:33.398Z,72.65
2023-05-23T21:03:03.658Z,72.53
2023-05-23T21:05:32.807Z,72.36
2023-05-23T21:08:01.866Z,71.92
2023-05-23T21:10:30.828Z,72.20
2023-05-23T21:13:00.711Z,71.85
2023-05-23T21:15:29.910Z,72.40
2023-05-23T21:17:59.430Z,71.70
2023-05-23T21:20:29.560Z,71.70
2023-05-23T21:22:58.433Z,71.75
2023-05-23T21:25:27.959Z,70.96
2023-05-23T21:27:56.792Z,71.86
2023-05-23T21:30:26.413Z,71.53
2023-05-23T21:32:55.478Z,71.10
2023-05-23T21:35:24.460Z,70.97
2023-05-23T21:37:53.594Z,70.81
2023-05-23T21:40:22.497Z,71.15
2023-05-23T21:42:51.350Z,70.83
2023-05-23T21:45:20.213Z,70.56
2023-05-23T21:47:49.091Z,70.40
2023-05-23T21:50:17.984Z,69.97
2023-05-23T21:52:46.863Z,69.85
2023-05-23T21:55:15.886Z,69.65
2023-05-23T21:57:44.750Z,69.25
2023-05-23T22:00:15.438Z,69.50
2023-05-23T22:02:45.016Z,69.11
2023-05-23T22:05:14.105Z,69.17
2023-05-23T22:07:43.324Z,68.97
2023-05-23T22:10:12.667Z,68.96
2023-05-23T22:12:41.701Z,68.81
2023-05-23T22:15:11.079Z,68.92
2023-05-23T22:17:43.998Z,68.88
2023-05-23T22:20:15.224Z,68.98
2023-05-23T22:22:44.054Z,67.91
2023-05-23T22:25:12.901Z,67.36
2023-05-23T22:27:42.023Z,67.69
2023-05-23T22:30:11.418Z,67.35
2023-05-23T22:32:40.264Z,67.09
2023-05-23T22:35:09.549Z,67.56
2023-05-23T22:37:38.436Z,67.32
2023-05-23T22:40:08.290Z,66.84
2023-05-23T22:42:37.547Z,67.06
2023-05-23T22:45:07.958Z,66.83
2023-05-23T22:47:37.057Z,66.52
2023-05-23T22:50:06.228Z,67.25
2023-05-23T22:52:35.452Z,67.61
2023-05-23T22:55:06.707Z,67.96
2023-05-23T22:57:36.967Z,67.97
2023-05-23T23:00:07.752Z,68.57
2023-05-23T23:02:36.856Z,68.39
2023-05-23T23:05:06.666Z,68.59
2023-05-23T23:07:35.433Z,68.56
2023-05-23T23:10:04.664Z,68.54
2023-05-23T23:12:33.926Z,68.73
2023-05-23T23:15:02.859Z,69.17
2023-05-23T23:17:36.061Z,69.98
2023-05-23T23:20:08.530Z,70.22
2023-05-23T23:22:37.570Z,70.48
2023-05-23T23:25:12.957Z,70.35
2023-05-23T23:27:41.944Z,70.67
2023-05-23T23:30:11.231Z,70.54
2023-05-23T23:32:40.142Z,70.64
2023-05-23T23:35:09.404Z,70.76
2023-05-23T23:37:38.325Z,71.11
2023-05-23T23:40:09.388Z,71.40
2023-05-23T23:42:38.523Z,70.97
2023-05-23T23:45:07.861Z,70.75
2023-05-23T23:47:36.990Z,70.44
2023-05-23T23:50:07.350Z,70.77
2023-05-23T23:52:38.012Z,70.51
2023-05-23T23:55:07.696Z,70.64
2023-05-23T23:57:36.625Z,70.53
